Terminal Aerodrome Forecast
Issued by NWS Upton, NY

Home | Current Version | Previous Version | Text Only | Print | Product List | Glossary On
Versions: 1 2 3 4 5 6 7 8 9 10 11 12 13 14 15 16 17 18 19 20 21 22 23 24 25 26 27 28 29 30
000
FTUS41 KOKX 212141 AAB
TAFISP
TAF AMD
KISP 212141Z 2122/2218 17009KT P6SM FEW050 SCT120 OVC200
     FM220300 18005KT P6SM BKN120
     FM220900 VRB03KT P6SM FEW020 BKN040 OVC090 PROB30 2212/2215 5SM
      -RA OVC030
     FM221500 22006KT P6SM OVC050=

USA.gov is the U.S. government's official web portal to all federal, state and local government web resources and services.